createdAt,value
2023-04-18T00:00:56.432Z,101058.53
2023-04-18T00:03:25.645Z,101054.56
2023-04-18T00:05:56.132Z,101047.97
2023-04-18T00:08:24.770Z,101039.47
2023-04-18T00:10:54.186Z,101044.88
2023-04-18T00:13:23.081Z,101055.94
2023-04-18T00:15:54.241Z,101052.75
2023-04-18T00:18:26.719Z,101056.81
2023-04-18T00:20:57.080Z,101052.47
2023-04-18T00:23:28.340Z,101052.75
2023-04-18T00:25:56.815Z,101053.06
2023-04-18T00:28:25.744Z,101053.47
2023-04-18T00:30:54.628Z,101057.75
2023-04-18T00:33:23.639Z,101055.38
2023-04-18T00:35:53.689Z,101055.81
2023-04-18T00:38:24.207Z,101050.78
2023-04-18T00:40:52.743Z,101054.38
2023-04-18T00:43:24.294Z,101046.28
2023-04-18T00:45:53.462Z,101049.00
2023-04-18T00:48:22.438Z,101050.34
2023-04-18T00:50:51.412Z,101053.44
2023-04-18T00:53:20.821Z,101054.69
2023-04-18T00:55:51.341Z,101055.66
2023-04-18T00:58:20.259Z,101055.53
2023-04-18T01:00:49.934Z,101048.47
2023-04-18T01:03:19.956Z,101054.09
2023-04-18T01:05:49.038Z,101054.09
2023-04-18T01:08:18.627Z,101053.13
2023-04-18T01:10:47.106Z,101056.63
2023-04-18T01:13:20.262Z,101058.91
2023-04-18T01:15:50.821Z,101055.84
2023-04-18T01:18:20.973Z,101056.53
2023-04-18T01:20:51.665Z,101058.31
2023-04-18T01:23:22.504Z,101056.88
2023-04-18T01:25:52.456Z,101056.38
2023-04-18T01:28:22.886Z,101057.09
2023-04-18T01:30:52.157Z,101049.81
2023-04-18T01:33:21.062Z,101052.97
2023-04-18T01:35:50.172Z,101049.13
2023-04-18T01:38:18.932Z,101046.69
2023-04-18T01:40:47.565Z,101046.78
2023-04-18T01:43:18.522Z,101050.41
2023-04-18T01:45:47.352Z,101051.13
2023-04-18T01:48:16.229Z,101045.19
2023-04-18T01:50:45.046Z,101045.19
2023-04-18T01:53:13.907Z,101049.91
2023-04-18T01:55:45.521Z,101050.25
2023-04-18T01:58:15.791Z,101055.22
2023-04-18T02:00:46.148Z,101052.75
2023-04-18T02:03:14.872Z,101051.38
2023-04-18T02:05:43.890Z,101051.84
2023-04-18T02:08:12.789Z,101046.41
2023-04-18T02:10:42.749Z,101045.81
2023-04-18T02:13:11.633Z,101041.81
2023-04-18T02:15:40.533Z,101041.38
2023-04-18T02:18:11.670Z,101038.47
2023-04-18T02:20:41.952Z,101033.63
2023-04-18T02:23:10.994Z,101033.50
2023-04-18T02:25:39.525Z,101033.00
2023-04-18T02:28:08.356Z,101032.19
2023-04-18T02:30:37.222Z,101036.50
2023-04-18T02:33:06.474Z,101040.06
2023-04-18T02:35:37.378Z,101039.25
2023-04-18T02:38:06.560Z,101034.94
2023-04-18T02:40:35.044Z,101033.09
2023-04-18T02:43:04.690Z,101034.38
2023-04-18T02:45:33.989Z,101033.63
2023-04-18T02:48:03.023Z,101034.25
2023-04-18T02:50:33.200Z,101041.25
2023-04-18T02:53:03.552Z,101036.09
2023-04-18T02:55:44.553Z,101041.56
2023-04-18T02:58:13.958Z,101038.47
2023-04-18T03:01:01.725Z,101038.19
2023-04-18T03:04:06.839Z,101043.16
2023-04-18T03:06:43.766Z,101038.47
2023-04-18T03:09:14.530Z,101040.72
2023-04-18T03:11:48.584Z,101045.44
2023-04-18T03:14:21.117Z,101046.22
2023-04-18T03:16:55.158Z,101037.03
2023-04-18T03:19:29.249Z,101042.91
2023-04-18T03:22:01.518Z,101041.22
2023-04-18T03:24:32.311Z,101049.72
2023-04-18T03:27:04.807Z,101045.91
2023-04-18T03:29:33.815Z,101042.94
2023-04-18T03:32:03.101Z,101046.09
2023-04-18T03:34:31.679Z,101043.66
2023-04-18T03:37:01.298Z,101042.41
2023-04-18T03:39:33.678Z,101050.56
2023-04-18T03:42:03.350Z,101053.59
2023-04-18T03:44:32.383Z,101055.13
2023-04-18T03:47:01.375Z,101054.69
2023-04-18T03:49:32.179Z,101056.88
2023-04-18T03:52:01.190Z,101064.47
2023-04-18T03:54:30.086Z,101057.28
2023-04-18T03:57:00.980Z,101066.19
2023-04-18T03:59:30.480Z,101065.75
2023-04-18T04:01:59.597Z,101061.84
2023-04-18T04:04:28.345Z,101067.06
2023-04-18T04:06:58.502Z,101066.78
2023-04-18T04:09:27.600Z,101066.22
2023-04-18T04:11:56.618Z,101065.25
2023-04-18T04:14:27.325Z,101060.78
2023-04-18T04:16:55.991Z,101069.59
2023-04-18T04:19:25.381Z,101067.19
2023-04-18T04:22:05.220Z,101066.94
2023-04-18T04:24:35.523Z,101067.09
2023-04-18T04:27:05.266Z,101075.75
2023-04-18T04:29:39.540Z,101071.25
2023-04-18T04:32:09.415Z,101071.97
2023-04-18T04:34:41.551Z,101079.53
2023-04-18T04:37:14.097Z,101080.53
2023-04-18T04:40:01.007Z,101078.19
2023-04-18T04:42:49.263Z,101076.09
2023-04-18T04:45:25.919Z,101074.16
2023-04-18T04:47:54.587Z,101081.44
2023-04-18T04:50:23.862Z,101080.59
2023-04-18T04:52:52.430Z,101085.03
2023-04-18T04:55:21.783Z,101078.06
2023-04-18T04:57:52.264Z,101086.97
2023-04-18T05:00:41.664Z,101087.84
2023-04-18T05:03:10.909Z,101083.25
2023-04-18T05:05:41.364Z,101087.56
2023-04-18T05:08:10.001Z,101083.38
2023-04-18T05:10:38.574Z,101081.00
2023-04-18T05:13:07.439Z,101090.66
2023-04-18T05:15:36.317Z,101083.00
2023-04-18T05:18:06.904Z,101084.38
2023-04-18T05:20:35.956Z,101086.03
2023-04-18T05:23:05.116Z,101089.66
2023-04-18T05:25:33.763Z,101088.66
2023-04-18T05:28:04.655Z,101091.13
2023-04-18T05:30:33.495Z,101084.72
2023-04-18T05:33:03.168Z,101089.44
2023-04-18T05:35:33.577Z,101089.16
2023-04-18T05:38:02.199Z,101089.03
2023-04-18T05:40:30.831Z,101084.84
2023-04-18T05:42:59.866Z,101097.28
2023-04-18T05:45:28.714Z,101081.63
2023-04-18T05:47:57.716Z,101085.31
2023-04-18T05:50:26.733Z,101088.63
2023-04-18T05:52:59.298Z,101086.44
2023-04-18T05:55:28.362Z,101091.16
2023-04-18T05:57:57.431Z,101091.69
2023-04-18T06:00:26.374Z,101091.91
2023-04-18T06:02:55.466Z,101089.31
2023-04-18T06:05:24.788Z,101092.28
2023-04-18T06:07:53.456Z,101088.41
2023-04-18T06:10:23.832Z,101094.69
2023-04-18T06:12:52.444Z,101092.13
2023-04-18T06:15:21.400Z,101094.75
2023-04-18T06:17:50.264Z,101095.75
2023-04-18T06:20:19.131Z,101092.97
2023-04-18T06:22:47.628Z,101100.66
2023-04-18T06:25:16.833Z,101098.78
2023-04-18T06:27:47.306Z,101104.63
2023-04-18T06:30:16.113Z,101091.91
2023-04-18T06:32:45.011Z,101096.53
2023-04-18T06:35:13.994Z,101088.84
2023-04-18T06:37:44.875Z,101094.06
2023-04-18T06:40:14.367Z,101102.31
2023-04-18T06:42:43.849Z,101096.59
2023-04-18T06:45:14.612Z,101098.16
2023-04-18T06:47:43.615Z,101103.31
2023-04-18T06:50:12.732Z,101102.88
2023-04-18T06:52:44.519Z,101102.25
2023-04-18T06:55:14.064Z,101101.81
2023-04-18T06:57:43.352Z,101106.28
2023-04-18T07:00:14.848Z,101108.44
2023-04-18T07:02:44.110Z,101117.44
2023-04-18T07:05:13.068Z,101113.97
2023-04-18T07:07:41.651Z,101103.94
2023-04-18T07:10:11.874Z,101109.19
2023-04-18T07:12:40.723Z,101102.41
2023-04-18T07:15:10.949Z,101107.50
2023-04-18T07:17:41.480Z,101110.00
2023-04-18T07:20:13.078Z,101107.59
2023-04-18T07:22:42.828Z,101112.66
2023-04-18T07:25:11.956Z,101112.50
2023-04-18T07:27:40.867Z,101105.19
2023-04-18T07:30:10.821Z,101116.13
2023-04-18T07:32:41.363Z,101102.63
2023-04-18T07:35:11.197Z,101102.31
2023-04-18T07:37:39.772Z,101101.75
2023-04-18T07:40:09.726Z,101101.31
2023-04-18T07:42:38.684Z,101109.03
2023-04-18T07:45:08.741Z,101109.78
2023-04-18T07:47:37.689Z,101108.25
2023-04-18T07:50:10.384Z,101113.19
2023-04-18T07:52:39.608Z,101106.25
2023-04-18T07:55:09.411Z,101108.31
2023-04-18T07:57:38.280Z,101110.81
2023-04-18T08:00:09.600Z,101107.03
2023-04-18T08:02:44.711Z,101113.13
2023-04-18T08:05:15.370Z,101108.19
2023-04-18T08:07:43.881Z,101110.16
2023-04-18T08:10:13.084Z,101109.09
2023-04-18T08:12:42.169Z,101111.78
2023-04-18T08:15:11.827Z,101111.34
2023-04-18T08:17:42.876Z,101115.72
2023-04-18T08:20:13.118Z,101115.72
2023-04-18T08:23:01.277Z,101116.97
2023-04-18T08:25:33.263Z,101105.22
2023-04-18T08:28:02.194Z,101112.06
2023-04-18T08:30:31.527Z,101117.84
2023-04-18T08:33:01.047Z,101107.69
2023-04-18T08:35:30.152Z,101111.16
2023-04-18T08:38:00.741Z,101109.09
2023-04-18T08:40:30.454Z,101113.03
2023-04-18T08:42:59.734Z,101109.56
2023-04-18T08:45:28.957Z,101110.56
2023-04-18T08:48:01.597Z,101114.09
2023-04-18T08:50:30.653Z,101111.63
2023-04-18T08:53:01.424Z,101113.06
2023-04-18T08:55:30.455Z,101107.88
2023-04-18T08:57:59.768Z,101105.78
2023-04-18T09:00:29.376Z,101101.81
2023-04-18T09:02:58.600Z,101095.91
2023-04-18T09:05:28.420Z,101090.16
2023-04-18T09:07:57.529Z,101100.41
2023-04-18T09:10:29.394Z,101083.09
2023-04-18T09:12:59.183Z,101085.91
2023-04-18T09:15:29.421Z,101084.34
2023-04-18T09:17:59.584Z,101078.94
2023-04-18T09:20:38.180Z,101078.56
2023-04-18T09:23:11.033Z,101065.28
2023-04-18T09:25:47.031Z,101066.16
2023-04-18T09:28:27.135Z,101078.84
2023-04-18T09:30:56.881Z,101058.16
2023-04-18T09:33:29.443Z,101080.66
2023-04-18T09:36:00.344Z,101070.53
2023-04-18T09:38:41.322Z,101064.84
2023-04-18T09:41:12.598Z,101070.25
2023-04-18T09:43:41.611Z,101067.56
2023-04-18T09:46:11.070Z,101065.97
2023-04-18T09:48:40.905Z,101058.28
2023-04-18T09:51:11.240Z,101069.75
2023-04-18T09:53:41.116Z,101059.91
2023-04-18T09:56:16.321Z,101063.69
2023-04-18T09:58:45.589Z,101069.72
2023-04-18T10:01:14.877Z,101076.50
2023-04-18T10:03:49.208Z,101069.38
2023-04-18T10:06:18.494Z,101064.53
2023-04-18T10:08:48.159Z,101068.22
2023-04-18T10:11:19.284Z,101063.22
2023-04-18T10:13:49.655Z,101060.16
2023-04-18T10:16:18.633Z,101056.53
2023-04-18T10:18:47.686Z,101048.09
2023-04-18T10:21:16.819Z,101051.69
2023-04-18T10:23:48.959Z,101051.31
2023-04-18T10:26:19.289Z,101046.31
2023-04-18T10:28:51.375Z,101058.25
2023-04-18T10:31:20.578Z,101045.72
2023-04-18T10:34:03.139Z,101042.31
2023-04-18T10:36:33.665Z,101049.53
2023-04-18T10:39:04.330Z,101049.84
2023-04-18T10:41:35.206Z,101050.47
2023-04-18T10:44:22.409Z,101046.81
2023-04-18T10:47:27.696Z,101048.66
2023-04-18T10:49:59.084Z,101049.94
2023-04-18T10:52:29.074Z,101053.19
2023-04-18T10:55:15.951Z,101035.13
2023-04-18T10:57:47.938Z,101031.69
2023-04-18T11:00:18.712Z,101034.56
2023-04-18T11:02:53.795Z,101019.78
2023-04-18T11:05:25.503Z,101031.50
2023-04-18T11:07:54.157Z,101029.81
2023-04-18T11:10:23.991Z,101022.53
2023-04-18T11:12:55.800Z,101021.31
2023-04-18T11:15:25.694Z,101023.28
2023-04-18T11:17:59.004Z,101028.88
2023-04-18T11:20:28.357Z,101032.63
2023-04-18T11:22:58.107Z,101025.78
2023-04-18T11:25:28.959Z,101021.41
2023-04-18T11:28:01.867Z,101030.38
2023-04-18T11:30:37.983Z,101019.38
2023-04-18T11:33:08.980Z,101023.91
2023-04-18T11:35:39.725Z,101014.53
2023-04-18T11:38:10.190Z,101018.81
2023-04-18T11:40:38.619Z,101012.63
2023-04-18T11:43:09.151Z,101014.03
2023-04-18T11:45:38.448Z,101018.56
2023-04-18T11:48:08.448Z,101010.63
2023-04-18T11:50:38.561Z,101014.25
2023-04-18T11:53:07.511Z,101016.59
2023-04-18T11:55:35.940Z,101015.25
2023-04-18T11:58:06.123Z,101009.41
2023-04-18T12:00:37.284Z,101008.94
2023-04-18T12:03:12.685Z,101001.47
2023-04-18T12:05:43.581Z,101005.25
2023-04-18T12:08:14.306Z,101004.25
2023-04-18T12:10:47.464Z,101009.75
2023-04-18T12:13:16.570Z,101003.34
2023-04-18T12:15:48.371Z,101008.69
2023-04-18T12:18:19.884Z,101003.50
2023-04-18T12:20:52.357Z,100999.72
2023-04-18T12:23:31.564Z,100999.03
2023-04-18T12:26:02.123Z,100995.84
2023-04-18T12:28:31.611Z,100990.31
2023-04-18T12:31:02.123Z,100990.28
2023-04-18T12:33:31.924Z,100989.28
2023-04-18T12:36:01.214Z,100993.31
2023-04-18T12:38:30.162Z,100987.09
2023-04-18T12:40:59.019Z,100982.84
2023-04-18T12:43:27.847Z,100969.91
2023-04-18T12:45:56.853Z,100966.75
2023-04-18T12:48:27.278Z,100970.88
2023-04-18T12:50:56.251Z,100964.16
2023-04-18T12:53:25.122Z,100971.53
2023-04-18T12:55:53.680Z,100963.31
2023-04-18T12:58:22.673Z,100958.78
2023-04-18T13:00:51.530Z,100965.78
2023-04-18T13:03:21.535Z,100962.38
2023-04-18T13:05:54.191Z,100965.03
2023-04-18T13:08:23.610Z,100964.22
2023-04-18T13:10:52.219Z,100964.84
2023-04-18T13:13:21.147Z,100963.75
2023-04-18T13:15:50.170Z,100957.56
2023-04-18T13:18:19.201Z,100940.72
2023-04-18T13:20:49.609Z,100951.59
2023-04-18T13:23:19.975Z,100949.91
2023-04-18T13:25:48.604Z,100942.84
2023-04-18T13:28:17.667Z,100941.72
2023-04-18T13:30:46.606Z,100938.66
2023-04-18T13:33:15.532Z,100940.69
2023-04-18T13:35:44.381Z,100935.69
2023-04-18T13:38:13.326Z,100930.97
2023-04-18T13:40:43.255Z,100933.91
2023-04-18T13:43:13.162Z,100935.38
2023-04-18T13:45:42.228Z,100934.72
2023-04-18T13:48:11.218Z,100934.59
2023-04-18T13:50:40.172Z,100933.34
2023-04-18T13:53:09.093Z,100924.34
2023-04-18T13:55:38.037Z,100926.03
2023-04-18T13:58:09.827Z,100924.75
2023-04-18T14:00:38.951Z,100918.25
2023-04-18T14:03:07.938Z,100924.72
2023-04-18T14:05:37.173Z,100918.78
2023-04-18T14:08:06.521Z,100910.59
2023-04-18T14:10:35.123Z,100909.56
2023-04-18T14:13:04.117Z,100916.81
2023-04-18T14:15:34.494Z,100914.00
2023-04-18T14:18:03.483Z,100915.97
2023-04-18T14:20:34.756Z,100912.03
2023-04-18T14:23:03.771Z,100914.66
2023-04-18T14:25:32.306Z,100907.75
2023-04-18T14:28:09.576Z,100911.69
2023-04-18T14:30:41.113Z,100902.47
2023-04-18T14:33:10.536Z,100913.09
2023-04-18T14:35:40.038Z,100912.63
2023-04-18T14:38:09.138Z,100905.06
2023-04-18T14:40:37.703Z,100902.09
2023-04-18T14:43:06.712Z,100900.97
2023-04-18T14:45:35.788Z,100900.56
2023-04-18T14:48:08.842Z,100902.25
2023-04-18T14:50:39.306Z,100895.59
2023-04-18T14:53:08.797Z,100890.34
2023-04-18T14:55:37.645Z,100899.31
2023-04-18T14:58:06.709Z,100890.66
2023-04-18T15:00:35.632Z,100891.34
2023-04-18T15:03:08.872Z,100891.31
2023-04-18T15:05:43.041Z,100892.00
2023-04-18T15:08:12.101Z,100889.16
2023-04-18T15:10:42.419Z,100898.78
2023-04-18T15:13:12.364Z,100887.41
2023-04-18T15:15:41.327Z,100877.69
2023-04-18T15:18:13.874Z,100887.06
2023-04-18T15:20:42.767Z,100888.50
2023-04-18T15:23:13.857Z,100890.78
2023-04-18T15:25:42.823Z,100899.91
2023-04-18T15:28:11.658Z,100895.41
2023-04-18T15:30:40.855Z,100886.19
2023-04-18T15:33:11.461Z,100880.38
2023-04-18T15:35:40.380Z,100882.56
2023-04-18T15:38:09.224Z,100885.69
2023-04-18T15:40:37.767Z,100892.50
2023-04-18T15:43:06.718Z,100887.03
2023-04-18T15:45:35.756Z,100884.88
2023-04-18T15:48:04.848Z,100887.19
2023-04-18T15:50:35.640Z,100886.56
2023-04-18T15:53:04.510Z,100881.38
2023-04-18T15:55:33.074Z,100881.94
2023-04-18T15:58:02.032Z,100875.25
2023-04-18T16:00:30.973Z,100881.09
2023-04-18T16:02:59.935Z,100869.81
2023-04-18T16:05:35.261Z,100874.13
2023-04-18T16:08:03.882Z,100878.75
2023-04-18T16:10:32.560Z,100871.38
2023-04-18T16:13:02.492Z,100871.28
2023-04-18T16:15:32.417Z,100879.03
2023-04-18T16:18:01.501Z,100880.63
2023-04-18T16:20:30.573Z,100869.69
2023-04-18T16:23:01.385Z,100869.91
2023-04-18T16:25:29.893Z,100863.69
2023-04-18T16:27:58.878Z,100872.34
2023-04-18T16:30:28.013Z,100873.31
2023-04-18T16:32:57.212Z,100865.91
2023-04-18T16:35:26.382Z,100859.47
2023-04-18T16:37:54.984Z,100858.53
2023-04-18T16:40:30.639Z,100865.19
2023-04-18T16:42:59.675Z,100862.50
2023-04-18T16:45:28.720Z,100864.69
2023-04-18T16:47:58.300Z,100853.88
2023-04-18T16:50:27.616Z,100859.59
2023-04-18T16:52:56.188Z,100859.59
2023-04-18T16:55:27.533Z,100864.38
2023-04-18T16:57:56.630Z,100851.53
2023-04-18T17:00:25.588Z,100855.94
2023-04-18T17:02:56.001Z,100849.13
2023-04-18T17:05:46.679Z,100850.00
2023-04-18T17:08:15.237Z,100849.78
2023-04-18T17:10:45.544Z,100849.44
2023-04-18T17:13:14.259Z,100855.06
2023-04-18T17:15:43.252Z,100853.56
2023-04-18T17:18:12.490Z,100852.19
2023-04-18T17:20:41.540Z,100846.53
2023-04-18T17:23:10.665Z,100858.25
2023-04-18T17:25:39.612Z,100855.81
2023-04-18T17:28:09.991Z,100852.69
2023-04-18T17:30:41.536Z,100857.34
2023-04-18T17:33:11.701Z,100854.84
2023-04-18T17:35:42.223Z,100852.03
2023-04-18T17:38:11.690Z,100859.44
2023-04-18T17:40:40.720Z,100857.44
2023-04-18T17:43:12.333Z,100850.88
2023-04-18T17:45:41.364Z,100855.28
2023-04-18T17:48:10.504Z,100847.09
2023-04-18T17:50:39.624Z,100857.66
2023-04-18T17:53:08.523Z,100850.50
2023-04-18T17:55:37.052Z,100850.50
2023-04-18T17:58:06.386Z,100859.53
2023-04-18T18:00:36.765Z,100848.97
2023-04-18T18:03:05.823Z,100855.00
2023-04-18T18:05:34.828Z,100859.56
2023-04-18T18:08:03.748Z,100858.03
2023-04-18T18:10:33.340Z,100858.06
2023-04-18T18:13:02.248Z,100855.56
2023-04-18T18:15:31.383Z,100857.38
2023-04-18T18:18:02.792Z,100853.06
2023-04-18T18:20:32.143Z,100859.38
2023-04-18T18:23:01.814Z,100850.84
2023-04-18T18:25:30.553Z,100846.06
2023-04-18T18:27:59.811Z,100842.88
2023-04-18T18:30:28.965Z,100844.41
2023-04-18T18:32:58.021Z,100844.94
2023-04-18T18:35:29.194Z,100839.91
2023-04-18T18:37:57.931Z,100844.94
2023-04-18T18:40:26.719Z,100840.25
2023-04-18T18:42:56.810Z,100839.47
2023-04-18T18:45:25.921Z,100839.94
2023-04-18T18:47:54.968Z,100838.41
2023-04-18T18:50:23.913Z,100834.59
2023-04-18T18:52:53.789Z,100837.94
2023-04-18T18:55:22.466Z,100826.59
2023-04-18T18:57:51.509Z,100825.78
2023-04-18T19:00:20.579Z,100828.97
2023-04-18T19:02:49.861Z,100825.09
2023-04-18T19:05:18.913Z,100826.28
2023-04-18T19:07:47.422Z,100825.44
2023-04-18T19:10:17.844Z,100815.91
2023-04-18T19:12:46.466Z,100815.91
2023-04-18T19:15:15.272Z,100818.28
2023-04-18T19:17:44.288Z,100821.75
2023-04-18T19:20:13.160Z,100820.63
2023-04-18T19:22:43.110Z,100815.13
2023-04-18T19:25:12.192Z,100815.94
2023-04-18T19:27:44.474Z,100809.41
2023-04-18T19:30:13.617Z,100809.28
2023-04-18T19:32:42.629Z,100804.91
2023-04-18T19:35:13.294Z,100812.13
2023-04-18T19:37:41.575Z,100801.59
2023-04-18T19:40:12.396Z,100809.78
2023-04-18T19:42:42.704Z,100796.09
2023-04-18T19:45:13.789Z,100799.75
2023-04-18T19:47:44.355Z,100795.91
2023-04-18T19:50:13.433Z,100799.25
2023-04-18T19:52:42.332Z,100792.56
2023-04-18T19:55:11.840Z,100791.72
2023-04-18T19:57:42.457Z,100790.06
2023-04-18T20:00:12.842Z,100797.03
2023-04-18T20:02:42.650Z,100794.84
2023-04-18T20:05:12.964Z,100786.03
2023-04-18T20:07:41.932Z,100791.84
2023-04-18T20:10:11.486Z,100786.19
2023-04-18T20:12:40.447Z,100786.84
2023-04-18T20:15:11.820Z,100789.69
2023-04-18T20:17:40.736Z,100789.47
2023-04-18T20:20:11.136Z,100788.78
2023-04-18T20:22:40.478Z,100786.00
2023-04-18T20:25:10.671Z,100779.84
2023-04-18T20:27:39.698Z,100784.50
2023-04-18T20:30:10.880Z,100780.13
2023-04-18T20:32:39.794Z,100775.97
2023-04-18T20:35:09.687Z,100767.09
2023-04-18T20:37:39.171Z,100775.97
2023-04-18T20:40:11.177Z,100768.59
2023-04-18T20:42:40.151Z,100770.94
2023-04-18T20:45:11.840Z,100769.75
2023-04-18T20:47:41.339Z,100761.09
2023-04-18T20:50:11.276Z,100762.22
2023-04-18T20:52:42.851Z,100758.25
2023-04-18T20:55:12.021Z,100758.09
2023-04-18T20:57:40.820Z,100756.84
2023-04-18T21:00:14.257Z,100747.88
2023-04-18T21:02:43.286Z,100752.00
2023-04-18T21:05:12.287Z,100750.63
2023-04-18T21:07:41.103Z,100747.66
2023-04-18T21:10:11.207Z,100743.31
2023-04-18T21:12:40.923Z,100733.97
2023-04-18T21:15:12.253Z,100744.44
2023-04-18T21:17:41.111Z,100730.50
2023-04-18T21:20:10.838Z,100730.25
2023-04-18T21:22:39.299Z,100739.97
2023-04-18T21:25:09.234Z,100737.44
2023-04-18T21:27:38.102Z,100728.47
2023-04-18T21:30:08.330Z,100731.97
2023-04-18T21:32:38.431Z,100723.25
2023-04-18T21:35:07.900Z,100728.16
2023-04-18T21:37:36.391Z,100731.69
2023-04-18T21:40:06.017Z,100718.06
2023-04-18T21:42:35.572Z,100706.25
2023-04-18T21:45:05.074Z,100710.66
2023-04-18T21:47:34.140Z,100714.91
2023-04-18T21:50:04.805Z,100709.66
2023-04-18T21:52:33.372Z,100710.66
2023-04-18T21:55:02.309Z,100705.19
2023-04-18T21:57:31.223Z,100704.31
2023-04-18T22:00:00.014Z,100709.78
2023-04-18T22:02:29.390Z,100708.78
2023-04-18T22:04:58.340Z,100708.41
2023-04-18T22:07:29.660Z,100702.19
2023-04-18T22:09:59.923Z,100693.63
2023-04-18T22:12:28.805Z,100700.00
2023-04-18T22:14:58.205Z,100696.22
2023-04-18T22:17:27.302Z,100679.97
2023-04-18T22:19:56.241Z,100687.88
2023-04-18T22:22:25.108Z,100676.00
2023-04-18T22:24:55.367Z,100685.34
2023-04-18T22:27:23.992Z,100681.75
2023-04-18T22:29:52.824Z,100684.66
2023-04-18T22:32:21.941Z,100676.06
2023-04-18T22:34:50.829Z,100672.88
2023-04-18T22:37:19.674Z,100675.69
2023-04-18T22:39:48.548Z,100672.53
2023-04-18T22:42:18.757Z,100662.13
2023-04-18T22:44:47.412Z,100663.53
2023-04-18T22:47:16.165Z,100667.44
2023-04-18T22:49:44.648Z,100660.41
2023-04-18T22:52:14.338Z,100660.66
2023-04-18T22:54:43.314Z,100654.97
2023-04-18T22:57:12.160Z,100650.47
2023-04-18T22:59:42.536Z,100651.00
2023-04-18T23:02:12.828Z,100652.38
2023-04-18T23:04:42.398Z,100651.84
2023-04-18T23:07:11.262Z,100641.75
2023-04-18T23:09:40.168Z,100643.97
2023-04-18T23:12:09.093Z,100645.81
2023-04-18T23:14:37.935Z,100639.41
2023-04-18T23:17:08.216Z,100632.47
2023-04-18T23:19:36.780Z,100625.44
2023-04-18T23:22:05.636Z,100617.03
2023-04-18T23:24:34.625Z,100626.31
2023-04-18T23:27:03.658Z,100620.38
2023-04-18T23:29:32.524Z,100619.53
2023-04-18T23:32:01.413Z,100615.56
2023-04-18T23:34:31.356Z,100614.66
2023-04-18T23:37:00.297Z,100619.53
2023-04-18T23:39:29.139Z,100611.72
2023-04-18T23:41:57.992Z,100611.81
2023-04-18T23:44:26.913Z,100606.78
2023-04-18T23:46:55.377Z,100610.47
2023-04-18T23:49:24.276Z,100613.31
2023-04-18T23:51:54.538Z,100612.44
2023-04-18T23:54:23.371Z,100602.00
2023-04-18T23:56:52.207Z,100603.75
2023-04-18T23:59:21.078Z,100595.38
